createdAt,value
2018-07-06T00:02:12.846Z,100614.64
2018-07-06T00:04:51.747Z,100603.80
2018-07-06T00:07:30.566Z,100609.73
2018-07-06T00:10:09.495Z,100610.37
2018-07-06T00:12:48.333Z,100605.60
2018-07-06T00:15:27.252Z,100606.42
2018-07-06T00:18:06.154Z,100604.39
2018-07-06T00:20:45.041Z,100607.92
2018-07-06T00:23:23.857Z,100612.34
2018-07-06T00:26:02.624Z,100527.50
2018-07-06T00:28:41.445Z,100609.55
2018-07-06T00:31:20.381Z,100611.30
2018-07-06T00:33:59.161Z,100618.01
2018-07-06T00:36:38.320Z,100624.17
2018-07-06T00:39:17.049Z,100617.59
2018-07-06T00:41:56.239Z,100621.31
2018-07-06T00:44:35.066Z,100623.78
2018-07-06T00:47:14.287Z,100625.09
2018-07-06T00:49:53.145Z,100628.72
2018-07-06T00:52:32.209Z,100632.73
2018-07-06T00:55:11.106Z,100644.96
2018-07-06T00:57:52.116Z,100636.73
2018-07-06T01:00:30.894Z,100645.98
2018-07-06T01:03:10.697Z,100642.64
2018-07-06T01:05:49.588Z,100648.14
2018-07-06T01:08:29.741Z,100645.83
2018-07-06T01:11:09.005Z,100644.97
2018-07-06T01:13:48.103Z,100642.81
2018-07-06T01:16:26.897Z,100651.27
2018-07-06T01:19:06.070Z,100640.05
2018-07-06T01:21:44.837Z,100643.52
2018-07-06T01:24:24.341Z,100635.17
2018-07-06T01:27:03.237Z,100643.50
2018-07-06T01:29:42.209Z,100643.08
2018-07-06T01:32:21.062Z,100646.56
2018-07-06T01:35:00.126Z,100642.22
2018-07-06T01:37:38.861Z,100642.02
2018-07-06T01:40:17.871Z,100644.33
2018-07-06T01:42:56.741Z,100646.59
2018-07-06T01:45:35.754Z,100651.09
2018-07-06T01:48:14.593Z,100657.20
2018-07-06T01:50:53.684Z,100667.41
2018-07-06T01:53:32.622Z,100665.39
2018-07-06T01:56:11.370Z,100661.99
2018-07-06T01:58:50.243Z,100670.72
2018-07-06T02:01:29.154Z,100670.59
2018-07-06T02:04:07.981Z,100672.41
2018-07-06T02:06:47.070Z,100676.36
2018-07-06T02:09:25.789Z,100686.88
2018-07-06T02:12:04.807Z,100677.11
2018-07-06T02:14:43.645Z,100680.56
2018-07-06T02:17:22.465Z,100690.09
2018-07-06T02:20:01.398Z,100683.97
2018-07-06T02:22:40.293Z,100678.35
2018-07-06T02:25:19.157Z,100689.22
2018-07-06T02:27:58.061Z,100688.29
2018-07-06T02:30:39.206Z,100684.52
2018-07-06T02:33:18.137Z,100684.94
2018-07-06T02:35:56.984Z,100694.48
2018-07-06T02:38:35.762Z,100698.55
2018-07-06T02:41:14.645Z,100694.51
2018-07-06T02:43:53.624Z,100689.14
2018-07-06T02:46:32.378Z,100696.27
2018-07-06T02:49:11.265Z,100695.70
2018-07-06T02:51:50.160Z,100669.98
2018-07-06T02:54:28.974Z,100694.05
2018-07-06T02:57:07.901Z,100697.34
2018-07-06T02:59:46.838Z,100696.48
2018-07-06T03:02:25.766Z,100690.44
2018-07-06T03:05:04.654Z,100694.27
2018-07-06T03:07:43.474Z,100694.27
2018-07-06T03:10:22.416Z,100685.09
2018-07-06T03:13:01.189Z,100700.27
2018-07-06T03:15:40.107Z,100703.08
2018-07-06T03:18:18.913Z,100698.94
2018-07-06T03:20:57.890Z,100696.32
2018-07-06T03:23:36.698Z,100709.31
2018-07-06T03:26:15.587Z,100699.72
2018-07-06T03:28:54.454Z,100704.00
2018-07-06T03:31:33.253Z,100713.44
2018-07-06T03:34:12.200Z,100659.88
2018-07-06T03:36:51.114Z,100700.91
2018-07-06T03:39:29.982Z,100711.37
2018-07-06T03:42:08.879Z,100693.48
2018-07-06T03:44:47.837Z,100705.81
2018-07-06T03:47:26.773Z,100705.63
2018-07-06T03:50:05.733Z,100718.64
2018-07-06T03:52:44.740Z,100717.90
2018-07-06T03:55:23.777Z,100689.21
2018-07-06T03:58:03.989Z,100723.22
2018-07-06T04:00:42.906Z,100730.42
2018-07-06T04:03:21.833Z,100724.31
2018-07-06T04:06:00.928Z,100722.99
2018-07-06T04:08:39.785Z,100725.48
2018-07-06T04:11:18.667Z,100726.72
2018-07-06T04:13:57.969Z,100720.30
2018-07-06T04:16:36.917Z,100717.46
2018-07-06T04:19:15.609Z,100726.31
2018-07-06T04:21:54.765Z,100719.30
2018-07-06T04:24:33.621Z,100715.51
2018-07-06T04:27:13.131Z,100715.59
2018-07-06T04:29:51.873Z,100719.97
2018-07-06T04:32:31.265Z,100714.16
2018-07-06T04:35:10.409Z,100714.72
2018-07-06T04:37:49.372Z,100717.77
2018-07-06T04:40:28.180Z,100717.83
2018-07-06T04:43:07.051Z,100711.94
2018-07-06T04:45:46.513Z,100706.64
2018-07-06T04:48:25.398Z,100707.64
2018-07-06T04:51:04.417Z,100711.52
2018-07-06T04:53:43.186Z,100714.02
2018-07-06T04:56:22.068Z,100708.31
2018-07-06T04:59:01.049Z,100702.74
2018-07-06T05:01:40.066Z,100716.38
2018-07-06T05:04:18.882Z,100715.69
2018-07-06T05:06:57.891Z,100718.02
2018-07-06T05:09:36.566Z,100712.63
2018-07-06T05:12:15.762Z,100699.17
2018-07-06T05:14:54.416Z,100706.25
2018-07-06T05:17:33.465Z,100708.20
2018-07-06T05:20:12.309Z,100711.90
2018-07-06T05:22:51.385Z,100716.82
2018-07-06T05:25:30.201Z,100727.78
2018-07-06T05:28:09.029Z,100729.80
2018-07-06T05:30:50.164Z,100727.95
2018-07-06T05:33:29.132Z,100729.81
2018-07-06T05:36:08.095Z,100730.13
2018-07-06T05:38:46.917Z,100735.52
2018-07-06T05:41:25.842Z,100729.13
2018-07-06T05:44:04.753Z,100729.81
2018-07-06T05:46:43.663Z,100742.94
2018-07-06T05:49:22.365Z,100732.50
2018-07-06T05:52:01.186Z,100740.73
2018-07-06T05:54:40.001Z,100744.44
2018-07-06T05:57:18.915Z,100751.17
2018-07-06T05:59:57.782Z,100755.69
2018-07-06T06:02:36.877Z,100751.84
2018-07-06T06:05:15.871Z,100761.25
2018-07-06T06:07:42.310Z,100763.42
2018-07-06T06:10:09.993Z,100768.13
2018-07-06T06:12:37.668Z,100772.83
2018-07-06T06:15:05.410Z,100775.09
2018-07-06T06:17:33.146Z,100768.28
2018-07-06T06:20:00.835Z,100777.19
2018-07-06T06:22:28.555Z,100766.36
2018-07-06T06:24:56.263Z,100777.67
2018-07-06T06:27:25.054Z,100785.50
2018-07-06T06:29:52.777Z,100779.80
2018-07-06T06:32:20.493Z,100780.11
2018-07-06T06:34:48.259Z,100789.36
2018-07-06T06:37:16.054Z,100787.84
2018-07-06T06:39:43.853Z,100785.69
2018-07-06T06:42:11.531Z,100782.46
2018-07-06T06:44:39.415Z,100777.11
2018-07-06T06:47:07.282Z,100784.14
2018-07-06T06:49:35.044Z,100784.67
2018-07-06T06:52:02.849Z,100794.20
2018-07-06T06:54:30.637Z,100792.83
2018-07-06T06:56:58.639Z,100777.20
2018-07-06T06:59:26.426Z,100796.37
2018-07-06T07:01:54.129Z,100795.83
2018-07-06T07:04:21.926Z,100806.94
2018-07-06T07:06:49.713Z,100798.00
2018-07-06T07:09:17.484Z,100801.55
2018-07-06T07:11:45.209Z,100790.65
2018-07-06T07:14:13.064Z,100801.05
2018-07-06T07:16:40.745Z,100794.68
2018-07-06T07:19:08.502Z,100801.61
2018-07-06T07:21:36.347Z,100813.56
2018-07-06T07:24:04.098Z,100796.56
2018-07-06T07:26:31.846Z,100803.48
2018-07-06T07:28:59.728Z,100793.22
2018-07-06T07:31:27.506Z,100797.59
2018-07-06T07:33:55.562Z,100805.98
2018-07-06T07:36:23.495Z,100811.97
2018-07-06T07:38:51.387Z,100806.59
2018-07-06T07:41:19.242Z,100795.88
2018-07-06T07:43:47.209Z,100797.59
2018-07-06T07:46:15.078Z,100805.16
2018-07-06T07:48:42.766Z,100795.89
2018-07-06T07:51:53.610Z,100806.66
2018-07-06T07:54:26.757Z,100812.70
2018-07-06T07:56:55.893Z,100803.94
2018-07-06T07:59:23.929Z,100801.12
2018-07-06T08:01:51.725Z,100804.16
2018-07-06T08:04:19.630Z,100809.44
2018-07-06T08:06:47.392Z,100820.44
2018-07-06T08:09:15.407Z,100808.54
2018-07-06T08:11:43.303Z,100812.03
2018-07-06T08:14:11.046Z,100808.86
2018-07-06T08:16:38.765Z,100804.30
2018-07-06T08:19:07.003Z,100813.58
2018-07-06T08:21:35.019Z,100802.31
2018-07-06T08:24:02.701Z,100801.72
2018-07-06T08:26:30.349Z,100800.20
2018-07-06T08:28:58.199Z,100802.73
2018-07-06T08:31:25.904Z,100811.61
2018-07-06T08:34:04.823Z,100805.22
2018-07-06T08:38:40.142Z,100814.31
2018-07-06T08:41:07.814Z,100813.14
2018-07-06T08:43:35.489Z,100812.47
2018-07-06T08:46:03.207Z,100818.17
2018-07-06T08:48:30.921Z,100812.48
2018-07-06T08:50:58.633Z,100809.11
2018-07-06T08:53:26.330Z,100810.28
2018-07-06T08:55:54.007Z,100814.16
2018-07-06T08:58:21.767Z,100810.12
2018-07-06T09:00:49.509Z,100817.87
2018-07-06T09:03:17.171Z,100802.40
2018-07-06T09:05:44.865Z,100812.48
2018-07-06T09:08:12.586Z,100818.53
2018-07-06T09:10:40.277Z,100810.81
2018-07-06T09:13:08.046Z,100809.80
2018-07-06T09:15:35.726Z,100811.33
2018-07-06T09:18:03.540Z,100808.12
2018-07-06T09:20:31.226Z,100807.30
2018-07-06T09:22:58.977Z,100811.83
2018-07-06T09:25:26.737Z,100809.47
2018-07-06T09:27:54.512Z,100802.08
2018-07-06T09:30:22.085Z,100809.17
2018-07-06T09:32:49.772Z,100816.05
2018-07-06T09:35:17.459Z,100819.75
2018-07-06T09:37:45.153Z,100809.66
2018-07-06T09:40:12.849Z,100816.72
2018-07-06T09:42:40.534Z,100775.86
2018-07-06T09:45:08.325Z,100807.98
2018-07-06T09:47:36.027Z,100815.89
2018-07-06T09:50:03.818Z,100804.80
2018-07-06T09:52:31.536Z,100814.88
2018-07-06T09:54:59.417Z,100818.57
2018-07-06T09:57:27.145Z,100822.99
2018-07-06T09:59:54.838Z,100809.02
2018-07-06T10:02:22.529Z,100814.23
2018-07-06T10:04:50.247Z,100811.20
2018-07-06T10:07:17.956Z,100816.91
2018-07-06T10:09:45.704Z,100807.50
2018-07-06T10:12:13.386Z,100815.72
2018-07-06T10:14:41.125Z,100814.90
2018-07-06T10:17:08.849Z,100813.91
2018-07-06T10:19:36.604Z,100819.94
2018-07-06T10:22:04.967Z,100814.55
2018-07-06T10:24:32.765Z,100817.61
2018-07-06T10:27:00.450Z,100815.08
2018-07-06T10:29:37.875Z,100817.42
2018-07-06T10:32:17.302Z,100811.55
2018-07-06T10:34:45.072Z,100821.44
2018-07-06T10:37:12.809Z,100824.66
2018-07-06T10:39:40.559Z,100835.58
2018-07-06T10:42:08.799Z,100848.56
2018-07-06T10:44:36.569Z,100843.52
2018-07-06T10:47:04.369Z,100853.95
2018-07-06T10:49:32.051Z,100853.09
2018-07-06T10:51:59.767Z,100855.23
2018-07-06T10:54:27.483Z,100854.23
2018-07-06T10:56:55.203Z,100856.92
2018-07-06T10:59:22.875Z,100866.34
2018-07-06T11:01:50.669Z,100858.45
2018-07-06T11:04:18.383Z,100857.25
2018-07-06T11:06:46.093Z,100866.34
2018-07-06T11:09:13.837Z,100859.80
2018-07-06T11:11:41.648Z,100866.67
2018-07-06T11:14:09.273Z,100803.95
2018-07-06T11:16:36.965Z,100866.67
2018-07-06T11:19:04.689Z,100867.37
2018-07-06T11:21:32.352Z,100865.02
2018-07-06T11:24:00.012Z,100861.66
2018-07-06T11:26:27.716Z,100867.86
2018-07-06T11:28:55.405Z,100867.37
2018-07-06T11:31:23.084Z,100871.75
2018-07-06T11:33:50.794Z,100872.94
2018-07-06T11:36:18.506Z,100817.55
2018-07-06T11:38:46.247Z,100878.44
2018-07-06T11:41:13.968Z,100877.77
2018-07-06T11:43:41.637Z,100878.97
2018-07-06T11:46:09.394Z,100875.94
2018-07-06T11:48:37.123Z,100879.12
2018-07-06T11:51:04.844Z,100888.88
2018-07-06T11:53:32.526Z,100894.25
2018-07-06T11:56:00.252Z,100887.86
2018-07-06T11:58:27.955Z,100894.25
2018-07-06T12:00:55.673Z,100895.78
2018-07-06T12:03:23.372Z,100896.94
2018-07-06T12:05:51.094Z,100904.19
2018-07-06T12:08:18.946Z,100905.02
2018-07-06T12:10:46.677Z,100903.55
2018-07-06T12:13:14.396Z,100903.89
2018-07-06T12:15:42.121Z,100898.32
2018-07-06T12:18:09.815Z,100904.19
2018-07-06T12:20:37.495Z,100910.44
2018-07-06T12:23:05.270Z,100902.88
2018-07-06T12:25:32.951Z,100903.89
2018-07-06T12:28:00.673Z,100907.59
2018-07-06T12:30:28.341Z,100905.76
2018-07-06T12:32:56.006Z,100908.45
2018-07-06T12:35:23.670Z,100905.23
2018-07-06T12:37:51.413Z,100913.83
2018-07-06T12:40:19.104Z,100920.03
2018-07-06T12:42:46.789Z,100912.63
2018-07-06T12:45:14.483Z,100917.19
2018-07-06T12:47:42.165Z,100917.86
2018-07-06T12:50:09.822Z,100918.20
2018-07-06T12:52:37.595Z,100910.95
2018-07-06T12:55:05.393Z,100919.70
2018-07-06T12:57:33.141Z,100920.22
2018-07-06T13:00:01.107Z,100929.13
2018-07-06T13:02:28.774Z,100927.62
2018-07-06T13:04:56.461Z,100927.80
2018-07-06T13:07:24.144Z,100928.30
2018-07-06T13:09:51.854Z,100933.68
2018-07-06T13:12:19.609Z,100932.67
2018-07-06T13:14:47.291Z,100931.81
2018-07-06T13:17:14.974Z,100932.66
2018-07-06T13:19:42.774Z,100937.71
2018-07-06T13:22:10.466Z,100940.25
2018-07-06T13:24:38.131Z,100936.02
2018-07-06T13:27:05.906Z,100939.91
2018-07-06T13:29:33.670Z,100940.75
2018-07-06T13:32:01.405Z,100935.70
2018-07-06T13:34:29.078Z,100937.03
2018-07-06T13:36:56.816Z,100936.34
2018-07-06T13:39:24.538Z,100936.02
2018-07-06T13:41:52.484Z,100947.12
2018-07-06T13:44:20.171Z,100946.12
2018-07-06T13:46:47.928Z,100944.44
2018-07-06T13:49:16.187Z,100944.44
2018-07-06T13:51:43.891Z,100944.09
2018-07-06T13:54:11.617Z,100940.05
2018-07-06T13:56:39.320Z,100937.70
2018-07-06T13:59:07.055Z,100934.83
2018-07-06T14:01:35.006Z,100934.83
2018-07-06T14:04:02.694Z,100934.48
2018-07-06T14:06:30.390Z,100937.18
2018-07-06T14:08:58.082Z,100947.12
2018-07-06T14:11:25.755Z,100941.08
2018-07-06T14:13:53.770Z,100946.12
2018-07-06T14:16:21.498Z,100951.33
2018-07-06T14:18:49.190Z,100948.30
2018-07-06T14:21:16.894Z,100944.77
2018-07-06T14:23:44.563Z,100955.87
2018-07-06T14:26:12.454Z,100954.89
2018-07-06T14:28:40.144Z,100961.95
2018-07-06T14:31:08.155Z,100955.73
2018-07-06T14:33:35.890Z,100958.91
2018-07-06T14:36:03.618Z,100962.79
2018-07-06T14:38:31.354Z,100962.79
2018-07-06T14:40:59.062Z,100966.98
2018-07-06T14:43:26.738Z,100969.02
2018-07-06T14:45:54.429Z,100972.38
2018-07-06T14:48:22.155Z,100969.55
2018-07-06T14:50:49.868Z,100965.32
2018-07-06T14:53:17.566Z,100967.86
2018-07-06T14:55:45.318Z,100975.09
2018-07-06T14:58:13.031Z,100977.27
2018-07-06T15:00:40.704Z,100976.27
2018-07-06T15:03:08.427Z,100978.63
2018-07-06T15:05:36.133Z,100976.42
2018-07-06T15:08:03.846Z,100985.16
2018-07-06T15:10:31.523Z,100990.06
2018-07-06T15:12:59.261Z,100990.89
2018-07-06T15:15:26.974Z,100992.91
2018-07-06T15:17:54.671Z,100991.08
2018-07-06T15:20:22.390Z,100994.59
2018-07-06T15:22:50.095Z,100997.13
2018-07-06T15:25:17.794Z,100998.30
2018-07-06T15:27:45.485Z,101001.17
2018-07-06T15:30:13.273Z,101001.52
2018-07-06T15:32:40.939Z,100999.30
2018-07-06T15:35:08.646Z,101001.32
2018-07-06T15:37:36.382Z,100998.30
2018-07-06T15:40:04.238Z,101003.68
2018-07-06T15:42:31.973Z,101003.34
2018-07-06T15:44:59.706Z,101004.68
2018-07-06T15:47:27.514Z,101014.09
2018-07-06T15:49:55.329Z,101006.02
2018-07-06T15:52:23.129Z,101006.70
2018-07-06T15:54:50.813Z,101000.78
2018-07-06T15:57:18.557Z,101007.19
2018-07-06T15:59:46.286Z,101014.25
2018-07-06T16:02:14.010Z,101011.08
2018-07-06T16:04:41.702Z,101016.13
2018-07-06T16:07:09.401Z,101016.80
2018-07-06T16:09:37.092Z,101011.09
2018-07-06T16:12:04.758Z,101002.67
2018-07-06T16:14:32.434Z,101009.41
2018-07-06T16:17:00.131Z,101009.73
2018-07-06T16:19:27.842Z,101010.41
2018-07-06T16:21:55.561Z,101010.75
2018-07-06T16:24:23.269Z,101014.97
2018-07-06T16:26:51.010Z,101013.63
2018-07-06T16:29:18.721Z,101014.30
2018-07-06T16:31:46.466Z,101012.61
2018-07-06T16:34:14.190Z,101012.80
2018-07-06T16:36:41.916Z,101010.25
2018-07-06T16:39:09.694Z,101012.12
2018-07-06T16:41:37.449Z,101012.47
2018-07-06T16:44:05.252Z,101008.91
2018-07-06T16:46:32.901Z,101013.96
2018-07-06T16:49:00.666Z,101016.17
2018-07-06T16:51:28.385Z,101006.74
2018-07-06T16:53:56.128Z,101007.75
2018-07-06T16:56:23.862Z,101012.80
2018-07-06T16:58:51.605Z,101021.03
2018-07-06T17:01:19.308Z,101020.17
2018-07-06T17:03:47.026Z,101021.86
2018-07-06T17:06:14.787Z,101018.67
2018-07-06T17:08:42.480Z,101020.32
2018-07-06T17:11:10.194Z,101020.50
2018-07-06T17:13:37.952Z,101020.50
2018-07-06T17:16:05.679Z,101032.28
2018-07-06T17:18:33.372Z,101031.08
2018-07-06T17:21:01.153Z,101028.91
2018-07-06T17:23:28.851Z,101026.55
2018-07-06T17:25:56.513Z,101028.91
2018-07-06T17:28:24.246Z,101037.14
2018-07-06T17:30:51.954Z,101017.45
2018-07-06T17:33:19.626Z,101036.47
2018-07-06T17:35:47.379Z,101037.82
2018-07-06T17:38:15.066Z,101043.39
2018-07-06T17:40:42.763Z,101046.09
2018-07-06T17:43:10.576Z,101044.59
2018-07-06T17:45:38.291Z,101059.40
2018-07-06T17:48:06.890Z,101047.96
2018-07-06T17:50:34.685Z,101051.00
2018-07-06T17:53:02.450Z,101046.44
2018-07-06T17:55:30.212Z,101047.63
2018-07-06T17:57:58.070Z,101044.27
2018-07-06T18:00:25.792Z,101047.97
2018-07-06T18:02:53.529Z,101049.12
2018-07-06T18:05:21.199Z,101053.02
2018-07-06T18:07:48.938Z,101051.15
2018-07-06T18:10:16.664Z,101049.80
2018-07-06T18:12:44.402Z,101049.12
2018-07-06T18:15:13.666Z,101052.83
2018-07-06T18:17:41.402Z,101051.14
2018-07-06T18:20:09.292Z,101052.67
2018-07-06T18:22:37.209Z,101051.33
2018-07-06T18:25:04.973Z,101049.31
2018-07-06T18:27:32.681Z,101050.14
2018-07-06T18:30:00.398Z,101052.34
2018-07-06T18:32:28.447Z,101054.17
2018-07-06T18:34:56.307Z,101057.20
2018-07-06T18:37:24.072Z,101051.66
2018-07-06T18:39:51.765Z,101055.03
2018-07-06T18:42:19.466Z,101067.14
2018-07-06T18:44:47.172Z,101071.66
2018-07-06T18:47:14.915Z,101076.70
2018-07-06T18:49:42.793Z,101071.79
2018-07-06T18:52:10.494Z,101077.70
2018-07-06T18:54:38.237Z,101074.67
2018-07-06T18:57:05.998Z,101081.22
2018-07-06T18:59:33.693Z,101082.42
2018-07-06T19:02:01.387Z,101083.43
2018-07-06T19:04:29.085Z,101088.82
2018-07-06T19:06:56.866Z,101088.14
2018-07-06T19:09:24.523Z,101091.84
2018-07-06T19:11:52.243Z,101095.20
2018-07-06T19:14:19.940Z,101100.40
2018-07-06T19:16:47.676Z,101094.52
2018-07-06T19:19:15.349Z,101094.55
2018-07-06T19:21:43.085Z,101099.20
2018-07-06T19:24:10.765Z,101098.23
2018-07-06T19:26:38.435Z,101104.50
2018-07-06T19:29:06.166Z,101074.67
2018-07-06T19:31:33.962Z,101106.90
2018-07-06T19:34:01.633Z,101114.73
2018-07-06T19:36:29.298Z,101121.80
2018-07-06T19:38:56.996Z,101133.20
2018-07-06T19:41:24.669Z,101131.45
2018-07-06T19:43:52.346Z,101134.02
2018-07-06T19:46:20.014Z,101145.92
2018-07-06T19:48:47.678Z,101150.95
2018-07-06T19:51:15.353Z,101143.44
2018-07-06T19:53:43.037Z,101158.14
2018-07-06T19:56:10.755Z,101159.63
2018-07-06T19:58:38.449Z,101162.08
2018-07-06T20:01:06.220Z,101167.77
2018-07-06T20:03:33.911Z,101168.63
2018-07-06T20:06:01.610Z,101176.06
2018-07-06T20:08:29.285Z,101168.77
2018-07-06T20:10:56.993Z,101172.69
2018-07-06T20:13:24.744Z,101177.92
2018-07-06T20:15:52.385Z,101185.17
2018-07-06T20:18:20.065Z,101191.89
2018-07-06T20:20:47.757Z,101197.83
2018-07-06T20:23:15.441Z,101204.11
2018-07-06T20:25:43.306Z,101192.50
2018-07-06T20:28:10.986Z,101205.53
2018-07-06T20:30:38.717Z,101201.73
2018-07-06T20:33:06.400Z,101205.97
2018-07-06T20:35:34.069Z,101213.08
2018-07-06T20:38:01.777Z,101220.94
2018-07-06T20:40:29.645Z,101220.04
2018-07-06T20:42:57.309Z,101221.16
2018-07-06T20:45:24.976Z,101229.09
2018-07-06T20:47:52.693Z,101229.27
2018-07-06T20:50:20.381Z,101178.09
2018-07-06T20:52:48.056Z,101234.19
2018-07-06T20:55:15.754Z,101242.86
2018-07-06T20:57:43.460Z,101242.61
2018-07-06T21:00:11.143Z,101244.36
2018-07-06T21:02:38.859Z,101249.69
2018-07-06T21:05:06.570Z,101253.36
2018-07-06T21:07:34.237Z,101256.05
2018-07-06T21:10:01.910Z,101254.25
2018-07-06T21:12:29.596Z,101249.30
2018-07-06T21:14:57.287Z,101262.56
2018-07-06T21:17:24.945Z,101261.17
2018-07-06T21:19:52.634Z,101260.47
2018-07-06T21:22:20.417Z,101260.41
2018-07-06T21:24:48.094Z,101255.94
2018-07-06T21:27:15.818Z,101263.25
2018-07-06T21:29:43.506Z,101270.61
2018-07-06T21:32:11.228Z,101280.63
2018-07-06T21:34:38.907Z,101281.16
2018-07-06T21:37:06.595Z,101286.41
2018-07-06T21:39:34.293Z,101276.78
2018-07-06T21:42:02.002Z,101283.56
2018-07-06T21:44:29.665Z,101292.02
2018-07-06T21:46:57.376Z,101292.56
2018-07-06T21:49:25.020Z,101297.21
2018-07-06T21:51:52.697Z,101302.54
2018-07-06T21:54:20.364Z,101298.17
2018-07-06T21:56:48.009Z,101299.58
2018-07-06T21:59:15.689Z,101302.34
2018-07-06T22:01:43.401Z,101308.48
2018-07-06T22:04:11.080Z,101308.00
2018-07-06T22:06:38.754Z,101316.44
2018-07-06T22:09:06.540Z,101314.97
2018-07-06T22:11:34.260Z,101317.73
2018-07-06T22:14:01.932Z,101321.55
2018-07-06T22:16:29.596Z,101324.19
2018-07-06T22:18:57.277Z,101328.36
2018-07-06T22:21:24.955Z,101329.66
2018-07-06T22:23:52.640Z,101329.84
2018-07-06T22:26:20.305Z,101333.55
2018-07-06T22:28:47.964Z,101329.13
2018-07-06T22:31:15.637Z,101339.75
2018-07-06T22:33:43.324Z,101337.70
2018-07-06T22:36:11.010Z,101343.77
2018-07-06T22:38:38.706Z,101341.20
2018-07-06T22:41:06.396Z,101342.88
2018-07-06T22:43:34.067Z,101351.45
2018-07-06T22:46:01.749Z,101358.30
2018-07-06T22:48:29.427Z,101364.90
2018-07-06T22:50:57.121Z,101357.14
2018-07-06T22:53:24.807Z,101360.58
2018-07-06T22:55:52.478Z,101362.80
2018-07-06T22:58:20.152Z,101369.67
2018-07-06T23:00:47.831Z,101366.00
2018-07-06T23:03:15.482Z,101377.34
2018-07-06T23:05:43.155Z,101375.53
2018-07-06T23:08:10.808Z,101372.41
2018-07-06T23:10:38.481Z,101382.67
2018-07-06T23:13:06.169Z,101379.86
2018-07-06T23:15:33.850Z,101380.32
2018-07-06T23:18:01.535Z,101380.84
2018-07-06T23:20:29.218Z,101370.78
2018-07-06T23:23:12.422Z,101375.97
2018-07-06T23:25:41.317Z,101385.09
2018-07-06T23:28:09.138Z,101386.94
2018-07-06T23:30:36.837Z,101388.29
2018-07-06T23:33:05.483Z,101390.86
2018-07-06T23:35:33.298Z,101393.63
2018-07-06T23:38:01.006Z,101400.22
2018-07-06T23:40:28.730Z,101399.28
2018-07-06T23:42:56.466Z,101396.67
2018-07-06T23:45:24.198Z,101405.77
2018-07-06T23:47:52.032Z,101402.39
2018-07-06T23:50:20.070Z,101400.25
2018-07-06T23:52:47.811Z,101421.05
2018-07-06T23:55:15.805Z,101404.52
2018-07-06T23:57:43.891Z,101413.07
